createdAt,value
2022-11-05T00:00:38.795Z,96820.59
2022-11-05T00:03:25.665Z,96823.75
2022-11-05T00:06:12.536Z,96824.63
2022-11-05T00:08:59.649Z,96824.84
2022-11-05T00:11:46.579Z,96829.56
2022-11-05T00:14:33.177Z,96830.16
2022-11-05T00:17:02.253Z,96840.28
2022-11-05T00:19:30.802Z,96834.22
2022-11-05T00:22:17.433Z,96838.22
2022-11-05T00:25:04.225Z,96847.00
2022-11-05T00:27:34.568Z,96853.28
2022-11-05T00:30:07.526Z,96849.56
2022-11-05T00:32:38.226Z,96842.94
2022-11-05T00:35:07.810Z,96855.06
2022-11-05T00:37:36.472Z,96850.31
2022-11-05T00:40:06.120Z,96846.13
2022-11-05T00:42:52.872Z,96851.66
2022-11-05T00:45:21.546Z,96848.69
2022-11-05T00:48:08.429Z,96849.53
2022-11-05T00:50:36.883Z,96852.53
2022-11-05T00:53:06.150Z,96847.38
2022-11-05T00:55:38.969Z,96840.56
2022-11-05T00:58:09.348Z,96833.63
2022-11-05T01:00:39.390Z,96833.13
2022-11-05T01:03:13.332Z,96828.13
2022-11-05T01:05:43.788Z,96831.31
2022-11-05T01:08:12.774Z,96825.63
2022-11-05T01:10:43.323Z,96823.16
2022-11-05T01:13:13.414Z,96821.00
2022-11-05T01:15:42.155Z,96803.19
2022-11-05T01:18:11.166Z,96804.81
2022-11-05T01:20:39.910Z,96791.97
2022-11-05T01:23:13.193Z,96785.31
2022-11-05T01:25:43.042Z,96796.22
2022-11-05T01:28:11.510Z,96785.84
2022-11-05T01:30:39.976Z,96777.63
2022-11-05T01:33:09.098Z,96784.34
2022-11-05T01:35:39.479Z,96783.03
2022-11-05T01:38:08.441Z,96779.03
2022-11-05T01:40:36.785Z,96775.41
2022-11-05T01:43:10.149Z,96776.34
2022-11-05T01:45:38.749Z,96762.88
2022-11-05T01:48:16.115Z,96769.03
2022-11-05T01:50:49.653Z,96761.22
2022-11-05T01:53:20.505Z,96745.25
2022-11-05T01:55:56.042Z,96740.59
2022-11-05T01:58:25.911Z,96745.22
2022-11-05T02:00:55.147Z,96746.91
2022-11-05T02:03:23.864Z,96741.91
2022-11-05T02:05:52.851Z,96741.59
2022-11-05T02:08:59.164Z,96745.00
2022-11-05T02:11:28.158Z,96744.00
2022-11-05T02:13:56.740Z,96737.44
2022-11-05T02:16:32.351Z,96727.94
2022-11-05T02:19:13.999Z,96727.78
2022-11-05T02:22:00.842Z,96727.25
2022-11-05T02:24:57.488Z,96718.63
2022-11-05T02:27:33.653Z,96728.47
2022-11-05T02:30:09.986Z,96729.03
2022-11-05T02:32:59.014Z,96732.75
2022-11-05T02:35:36.745Z,96737.00
2022-11-05T02:38:07.273Z,96742.38
2022-11-05T02:40:58.513Z,96739.28
2022-11-05T02:43:39.206Z,96748.03
2022-11-05T02:46:47.922Z,96748.81
2022-11-05T02:49:25.226Z,96749.00
2022-11-05T02:51:58.810Z,96750.38
2022-11-05T02:54:57.456Z,96752.91
2022-11-05T02:57:26.167Z,96756.78
2022-11-05T03:00:02.151Z,96742.72
2022-11-05T03:02:30.561Z,96746.59
2022-11-05T03:04:59.767Z,96758.72
2022-11-05T03:07:50.215Z,96752.09
2022-11-05T03:10:23.318Z,96756.09
2022-11-05T03:13:10.053Z,96756.56
2022-11-05T03:16:12.113Z,96749.00
2022-11-05T03:18:42.735Z,96748.47
2022-11-05T03:21:16.788Z,96749.84
2022-11-05T03:23:59.260Z,96751.16
2022-11-05T03:26:57.638Z,96753.47
2022-11-05T03:29:28.739Z,96738.06
2022-11-05T03:31:58.007Z,96743.13
2022-11-05T03:34:30.542Z,96745.44
2022-11-05T03:36:58.931Z,96746.03
2022-11-05T03:39:38.558Z,96742.75
2022-11-05T03:42:07.935Z,96739.25
2022-11-05T03:44:38.242Z,96739.56
2022-11-05T03:47:09.878Z,96746.81
2022-11-05T03:49:44.285Z,96744.78
2022-11-05T03:52:17.908Z,96735.75
2022-11-05T03:54:46.476Z,96741.13
2022-11-05T03:57:31.926Z,96743.13
2022-11-05T04:00:00.306Z,96742.28
2022-11-05T04:02:28.968Z,96751.16
2022-11-05T04:04:57.593Z,96764.47
2022-11-05T04:07:44.887Z,96764.00
2022-11-05T04:10:31.609Z,96767.13
2022-11-05T04:13:19.202Z,96767.69
2022-11-05T04:16:06.186Z,96774.19
2022-11-05T04:18:34.644Z,96775.09
2022-11-05T04:21:22.927Z,96770.03
2022-11-05T04:24:10.105Z,96783.25
2022-11-05T04:26:40.033Z,96777.56
2022-11-05T04:29:31.543Z,96773.03
2022-11-05T04:32:00.012Z,96775.56
2022-11-05T04:34:28.563Z,96778.66
2022-11-05T04:36:56.979Z,96774.03
2022-11-05T04:39:25.346Z,96774.97
2022-11-05T04:41:54.314Z,96790.63
2022-11-05T04:44:22.797Z,96792.88
2022-11-05T04:46:51.206Z,96788.16
2022-11-05T04:49:19.586Z,96786.03
2022-11-05T04:51:48.042Z,96784.78
2022-11-05T04:54:18.125Z,96783.66
2022-11-05T04:56:46.548Z,96778.41
2022-11-05T04:59:15.664Z,96772.44
2022-11-05T05:01:44.266Z,96784.84
2022-11-05T05:04:12.807Z,96784.75
2022-11-05T05:06:41.284Z,96791.13
2022-11-05T05:09:09.633Z,96794.50
2022-11-05T05:11:39.617Z,96800.13
2022-11-05T05:14:08.614Z,96815.78
2022-11-05T05:16:37.079Z,96817.44
2022-11-05T05:19:05.519Z,96824.00
2022-11-05T05:21:40.169Z,96820.97
2022-11-05T05:24:19.073Z,96825.53
2022-11-05T05:26:49.355Z,96822.81
2022-11-05T05:29:17.998Z,96814.75
2022-11-05T05:31:46.568Z,96821.38
2022-11-05T05:34:15.161Z,96821.03
2022-11-05T05:36:43.586Z,96819.97
2022-11-05T05:39:12.131Z,96826.00
2022-11-05T05:41:40.505Z,96822.34
2022-11-05T05:44:09.060Z,96828.03
2022-11-05T05:46:37.709Z,96832.66
2022-11-05T05:49:11.231Z,96828.84
2022-11-05T05:51:40.918Z,96840.72
2022-11-05T05:54:10.551Z,96845.25
2022-11-05T05:56:39.282Z,96846.00
2022-11-05T05:59:07.850Z,96848.19
2022-11-05T06:01:36.435Z,96857.72
2022-11-05T06:04:05.147Z,96852.69
2022-11-05T06:06:33.610Z,96862.25
2022-11-05T06:09:02.071Z,96856.47
2022-11-05T06:11:30.508Z,96858.69
2022-11-05T06:13:59.026Z,96854.19
2022-11-05T06:16:28.832Z,96870.06
2022-11-05T06:18:57.328Z,96860.34
2022-11-05T06:21:25.825Z,96859.81
2022-11-05T06:23:54.155Z,96850.84
2022-11-05T06:26:22.628Z,96848.03
2022-11-05T06:28:51.235Z,96849.38
2022-11-05T06:31:19.713Z,96855.91
2022-11-05T06:33:48.840Z,96860.06
2022-11-05T06:36:18.225Z,96861.44
2022-11-05T06:38:46.822Z,96854.81
2022-11-05T06:41:15.306Z,96845.84
2022-11-05T06:43:43.866Z,96848.94
2022-11-05T06:46:12.570Z,96849.72
2022-11-05T06:48:41.622Z,96849.94
2022-11-05T06:51:10.146Z,96844.47
2022-11-05T06:53:38.666Z,96841.19
2022-11-05T06:56:07.803Z,96835.56
2022-11-05T06:58:37.010Z,96833.72
2022-11-05T07:01:08.840Z,96838.41
2022-11-05T07:03:37.782Z,96826.44
2022-11-05T07:06:07.500Z,96838.03
2022-11-05T07:08:36.169Z,96826.81
2022-11-05T07:11:06.102Z,96818.91
2022-11-05T07:13:35.082Z,96825.34
2022-11-05T07:16:03.512Z,96820.72
2022-11-05T07:18:32.999Z,96813.78
2022-11-05T07:21:01.571Z,96811.44
2022-11-05T07:23:30.069Z,96813.59
2022-11-05T07:26:00.028Z,96817.22
2022-11-05T07:28:28.406Z,96821.00
2022-11-05T07:30:59.007Z,96817.91
2022-11-05T07:33:30.067Z,96807.25
2022-11-05T07:36:00.920Z,96812.22
2022-11-05T07:38:29.317Z,96809.06
2022-11-05T07:41:00.575Z,96807.13
2022-11-05T07:43:28.975Z,96807.97
2022-11-05T07:45:58.199Z,96802.06
2022-11-05T07:48:26.726Z,96811.47
2022-11-05T07:50:55.223Z,96801.09
2022-11-05T07:53:23.659Z,96796.84
2022-11-05T07:55:52.913Z,96789.22
2022-11-05T07:58:21.564Z,96787.19
2022-11-05T08:00:50.839Z,96784.06
2022-11-05T08:03:20.426Z,96788.06
2022-11-05T08:05:49.521Z,96791.34
2022-11-05T08:08:18.906Z,96791.78
2022-11-05T08:10:47.952Z,96789.78
2022-11-05T08:13:16.670Z,96777.41
2022-11-05T08:15:46.698Z,96788.88
2022-11-05T08:18:16.555Z,96791.41
2022-11-05T08:20:45.869Z,96779.81
2022-11-05T08:23:15.043Z,96775.59
2022-11-05T08:25:43.821Z,96784.41
2022-11-05T08:28:13.169Z,96783.75
2022-11-05T08:30:41.793Z,96778.13
2022-11-05T08:33:11.774Z,96773.31
2022-11-05T08:35:40.682Z,96770.50
2022-11-05T08:38:11.388Z,96765.50
2022-11-05T08:40:39.964Z,96770.19
2022-11-05T08:43:11.048Z,96763.16
2022-11-05T08:45:39.891Z,96761.84
2022-11-05T08:48:10.458Z,96761.59
2022-11-05T08:50:39.212Z,96762.38
2022-11-05T08:53:08.153Z,96755.44
2022-11-05T08:55:36.845Z,96754.63
2022-11-05T08:58:06.849Z,96760.53
2022-11-05T09:00:36.373Z,96751.84
2022-11-05T09:03:05.931Z,96748.84
2022-11-05T09:05:38.627Z,96753.63
2022-11-05T09:08:07.978Z,96756.72
2022-11-05T09:10:36.524Z,96751.78
2022-11-05T09:13:06.044Z,96751.56
2022-11-05T09:15:36.658Z,96753.28
2022-11-05T09:18:08.477Z,96750.09
2022-11-05T09:20:37.036Z,96751.44
2022-11-05T09:23:05.843Z,96755.28
2022-11-05T09:25:35.053Z,96744.38
2022-11-05T09:28:24.802Z,96744.34
2022-11-05T09:30:53.635Z,96740.63
2022-11-05T09:33:23.550Z,96746.09
2022-11-05T09:35:52.882Z,96740.31
2022-11-05T09:38:21.361Z,96742.31
2022-11-05T09:40:56.591Z,96740.75
2022-11-05T09:43:33.609Z,96731.06
2022-11-05T09:46:08.922Z,96733.19
2022-11-05T09:48:37.364Z,96725.28
2022-11-05T09:51:06.710Z,96723.31
2022-11-05T09:53:37.285Z,96726.25
2022-11-05T09:56:05.890Z,96716.41
2022-11-05T09:58:44.604Z,96714.44
2022-11-05T10:01:16.226Z,96715.59
2022-11-05T10:03:55.356Z,96702.16
2022-11-05T10:06:25.695Z,96708.44
2022-11-05T10:09:08.242Z,96696.88
2022-11-05T10:11:41.566Z,96698.25
2022-11-05T10:14:20.380Z,96701.81
2022-11-05T10:16:52.265Z,96697.75
2022-11-05T10:19:24.844Z,96701.81
2022-11-05T10:22:10.001Z,96692.22
2022-11-05T10:24:42.039Z,96701.31
2022-11-05T10:27:25.674Z,96697.63
2022-11-05T10:29:54.104Z,96699.03
2022-11-05T10:32:33.740Z,96695.31
2022-11-05T10:35:03.044Z,96693.31
2022-11-05T10:37:35.829Z,96700.56
2022-11-05T10:40:34.851Z,96700.09
2022-11-05T10:43:31.159Z,96696.78
2022-11-05T10:46:18.787Z,96690.19
2022-11-05T10:48:53.154Z,96683.44
2022-11-05T10:51:21.757Z,96691.25
2022-11-05T10:54:02.840Z,96683.13
2022-11-05T10:56:35.602Z,96681.88
2022-11-05T10:59:10.935Z,96682.31
2022-11-05T11:01:40.912Z,96675.44
2022-11-05T11:04:12.632Z,96667.09
2022-11-05T11:06:44.963Z,96672.78
2022-11-05T11:09:32.478Z,96660.41
2022-11-05T11:12:27.794Z,96665.06
2022-11-05T11:15:03.857Z,96660.34
2022-11-05T11:17:32.684Z,96663.06
2022-11-05T11:20:20.449Z,96657.75
2022-11-05T11:23:05.207Z,96651.69
2022-11-05T11:26:01.025Z,96662.75
2022-11-05T11:28:34.414Z,96664.66
2022-11-05T11:31:12.817Z,96656.75
2022-11-05T11:33:42.913Z,96658.91
2022-11-05T11:36:12.378Z,96659.56
2022-11-05T11:38:40.812Z,96653.06
2022-11-05T11:41:19.926Z,96657.28
2022-11-05T11:43:48.504Z,96652.63
2022-11-05T11:46:20.468Z,96648.75
2022-11-05T11:48:50.379Z,96656.75
2022-11-05T11:51:26.243Z,96653.59
2022-11-05T11:53:57.505Z,96643.19
2022-11-05T11:56:25.969Z,96648.91
2022-11-05T11:58:56.969Z,96644.84
2022-11-05T12:02:07.055Z,96650.88
2022-11-05T12:05:03.880Z,96647.38
2022-11-05T12:07:53.690Z,96651.16
2022-11-05T12:10:44.789Z,96640.38
2022-11-05T12:13:19.288Z,96642.88
2022-11-05T12:15:55.428Z,96655.59
2022-11-05T12:18:39.764Z,96647.47
2022-11-05T12:21:15.387Z,96653.91
2022-11-05T12:23:52.590Z,96651.34
2022-11-05T12:26:21.062Z,96659.41
2022-11-05T12:29:17.465Z,96661.53
2022-11-05T12:32:01.052Z,96649.47
2022-11-05T12:34:39.403Z,96653.78
2022-11-05T12:37:32.967Z,96655.78
2022-11-05T12:40:20.578Z,96653.53
2022-11-05T12:43:11.593Z,96655.25
2022-11-05T12:45:52.240Z,96651.88
2022-11-05T12:48:57.871Z,96658.88
2022-11-05T12:51:39.050Z,96655.34
2022-11-05T12:54:45.993Z,96658.56
2022-11-05T12:57:14.652Z,96661.03
2022-11-05T13:00:07.245Z,96661.25
2022-11-05T13:02:49.353Z,96654.50
2022-11-05T13:05:27.224Z,96661.53
2022-11-05T13:08:07.793Z,96663.50
2022-11-05T13:11:00.738Z,96660.97
2022-11-05T13:13:38.528Z,96661.88
2022-11-05T13:16:22.588Z,96662.81
2022-11-05T13:19:07.153Z,96665.25
2022-11-05T13:21:35.540Z,96669.78
2022-11-05T13:24:29.408Z,96663.72
2022-11-05T13:27:23.689Z,96667.78
2022-11-05T13:29:54.095Z,96679.41
2022-11-05T13:32:26.121Z,96686.03
2022-11-05T13:35:03.173Z,96695.06
2022-11-05T13:37:55.609Z,96679.91
2022-11-05T13:40:32.143Z,96677.28
2022-11-05T13:43:03.994Z,96685.81
2022-11-05T13:45:47.938Z,96686.28
2022-11-05T13:48:25.432Z,96693.63
2022-11-05T13:51:17.173Z,96690.06
2022-11-05T13:54:27.045Z,96701.81
2022-11-05T13:57:30.196Z,96690.13
2022-11-05T14:00:20.729Z,96706.88
2022-11-05T14:02:55.483Z,96704.88
2022-11-05T14:05:35.556Z,96710.31
2022-11-05T14:08:18.112Z,96720.56
2022-11-05T14:11:07.941Z,96719.31
2022-11-05T14:13:40.300Z,96717.84
2022-11-05T14:16:11.105Z,96727.47
2022-11-05T14:18:42.305Z,96722.44
2022-11-05T14:21:30.719Z,96726.38
2022-11-05T14:24:00.892Z,96724.75
2022-11-05T14:26:31.875Z,96731.34
2022-11-05T14:29:03.409Z,96738.03
2022-11-05T14:32:07.663Z,96725.53
2022-11-05T14:34:56.239Z,96741.88
2022-11-05T14:37:29.366Z,96747.22
2022-11-05T14:40:17.836Z,96738.34
2022-11-05T14:42:50.912Z,96738.13
2022-11-05T14:45:29.333Z,96740.66
2022-11-05T14:48:00.139Z,96736.97
2022-11-05T14:50:33.653Z,96739.50
2022-11-05T14:53:25.581Z,96741.81
2022-11-05T14:56:01.795Z,96740.47
2022-11-05T14:58:35.788Z,96750.94
2022-11-05T15:01:09.517Z,96751.53
2022-11-05T15:03:45.869Z,96753.84
2022-11-05T15:06:27.418Z,96756.19
2022-11-05T15:09:34.870Z,96757.00
2022-11-05T15:12:09.544Z,96762.47
2022-11-05T15:14:54.391Z,96759.75
2022-11-05T15:17:29.983Z,96754.38
2022-11-05T15:20:11.641Z,96758.53
2022-11-05T15:22:56.651Z,96761.91
2022-11-05T15:25:37.119Z,96760.63
2022-11-05T15:28:25.913Z,96752.22
2022-11-05T15:31:01.489Z,96760.84
2022-11-05T15:33:31.910Z,96758.81
2022-11-05T15:36:15.219Z,96757.91
2022-11-05T15:39:02.021Z,96754.06
2022-11-05T15:41:34.828Z,96759.03
2022-11-05T15:44:03.509Z,96770.97
2022-11-05T15:46:32.096Z,96773.41
2022-11-05T15:49:05.272Z,96785.41
2022-11-05T15:51:34.082Z,96783.53
2022-11-05T15:56:55.371Z,96785.03
2022-11-05T15:59:25.043Z,96771.56
2022-11-05T16:02:06.755Z,96787.69
2022-11-05T16:04:35.851Z,96781.91
2022-11-05T16:07:09.513Z,96787.50
2022-11-05T16:09:44.024Z,96784.97
2022-11-05T16:12:21.566Z,96791.88
2022-11-05T16:15:08.555Z,96792.88
2022-11-05T16:17:39.970Z,96794.78
2022-11-05T16:20:24.958Z,96801.97
2022-11-05T16:23:01.480Z,96800.31
2022-11-05T16:25:38.670Z,96813.22
2022-11-05T16:28:23.536Z,96808.19
2022-11-05T16:30:53.183Z,96800.50
2022-11-05T16:33:22.794Z,96802.91
2022-11-05T16:35:52.163Z,96810.84
2022-11-05T16:38:22.871Z,96813.81
2022-11-05T16:40:56.035Z,96815.75
2022-11-05T16:43:26.467Z,96822.69
2022-11-05T16:45:59.204Z,96818.13
2022-11-05T16:48:29.528Z,96816.19
2022-11-05T16:50:59.980Z,96812.44
2022-11-05T16:53:28.814Z,96819.41
2022-11-05T16:55:57.580Z,96830.19
2022-11-05T16:58:27.836Z,96834.94
2022-11-05T17:01:04.895Z,96833.88
2022-11-05T17:03:35.603Z,96832.88
2022-11-05T17:06:05.544Z,96835.19
2022-11-05T17:08:35.573Z,96838.63
2022-11-05T17:11:05.446Z,96842.09
2022-11-05T17:13:36.806Z,96847.63
2022-11-05T17:16:06.922Z,96834.53
2022-11-05T17:18:35.832Z,96834.06
2022-11-05T17:21:04.820Z,96842.69
2022-11-05T17:23:35.209Z,96827.56
2022-11-05T17:26:10.817Z,96831.53
2022-11-05T17:28:42.516Z,96833.63
2022-11-05T17:31:13.348Z,96842.97
2022-11-05T17:33:43.923Z,96843.50
2022-11-05T17:36:18.733Z,96837.91
2022-11-05T17:38:49.571Z,96842.97
2022-11-05T17:41:20.787Z,96849.47
2022-11-05T17:43:54.168Z,96847.09
2022-11-05T17:46:23.640Z,96840.63
2022-11-05T17:48:51.980Z,96844.53
2022-11-05T17:51:21.636Z,96842.94
2022-11-05T17:53:50.838Z,96836.53
2022-11-05T17:56:33.482Z,96843.22
2022-11-05T17:59:07.285Z,96841.16
2022-11-05T18:01:43.571Z,96844.78
2022-11-05T18:04:13.491Z,96843.84
2022-11-05T18:06:42.509Z,96837.38
2022-11-05T18:09:13.601Z,96836.53
2022-11-05T18:11:45.807Z,96834.44
2022-11-05T18:14:17.706Z,96840.50
2022-11-05T18:16:53.028Z,96832.06
2022-11-05T18:19:25.977Z,96835.34
2022-11-05T18:21:58.231Z,96837.13
2022-11-05T18:24:27.301Z,96840.31
2022-11-05T18:26:55.788Z,96834.09
2022-11-05T18:29:26.133Z,96834.50
2022-11-05T18:31:54.810Z,96837.91
2022-11-05T18:34:26.413Z,96842.84
2022-11-05T18:36:58.218Z,96846.16
2022-11-05T18:39:29.143Z,96837.78
2022-11-05T18:41:59.800Z,96834.59
2022-11-05T18:44:28.517Z,96843.19
2022-11-05T18:46:58.623Z,96849.69
2022-11-05T18:49:28.240Z,96843.41
2022-11-05T18:51:56.731Z,96850.09
2022-11-05T18:54:25.219Z,96838.34
2022-11-05T18:56:53.754Z,96842.63
2022-11-05T18:59:36.321Z,96851.63
2022-11-05T19:02:07.243Z,96861.31
2022-11-05T19:04:36.760Z,96846.56
2022-11-05T19:07:06.078Z,96852.56
2022-11-05T19:09:37.123Z,96850.19
2022-11-05T19:12:06.745Z,96855.38
2022-11-05T19:14:35.827Z,96858.03
2022-11-05T19:17:04.695Z,96852.63
2022-11-05T19:19:33.179Z,96854.63
2022-11-05T19:22:03.629Z,96858.56
2022-11-05T19:24:32.556Z,96859.94
2022-11-05T19:27:01.463Z,96856.03
2022-11-05T19:29:30.290Z,96862.53
2022-11-05T19:32:01.098Z,96855.16
2022-11-05T19:34:31.547Z,96861.88
2022-11-05T19:37:02.635Z,96858.47
2022-11-05T19:39:32.641Z,96862.06
2022-11-05T19:42:03.613Z,96867.47
2022-11-05T19:44:33.159Z,96863.53
2022-11-05T19:47:01.826Z,96865.84
2022-11-05T19:49:30.649Z,96867.25
2022-11-05T19:51:59.602Z,96869.00
2022-11-05T19:54:28.576Z,96871.88
2022-11-05T19:56:58.188Z,96878.91
2022-11-05T19:59:26.968Z,96875.97
2022-11-05T20:01:56.984Z,96878.28
2022-11-05T20:04:26.289Z,96875.63
2022-11-05T20:06:55.062Z,96894.66
2022-11-05T20:09:26.247Z,96881.59
2022-11-05T20:11:58.779Z,96899.16
2022-11-05T20:14:31.169Z,96882.94
2022-11-05T20:17:00.732Z,96902.88
2022-11-05T20:19:29.908Z,96890.50
2022-11-05T20:22:02.756Z,96907.63
2022-11-05T20:24:32.247Z,96897.59
2022-11-05T20:27:01.486Z,96903.13
2022-11-05T20:29:35.399Z,96900.91
2022-11-05T20:32:05.011Z,96908.09
2022-11-05T20:34:35.289Z,96896.75
2022-11-05T20:37:05.671Z,96904.03
2022-11-05T20:39:35.599Z,96900.00
2022-11-05T20:42:04.206Z,96912.59
2022-11-05T20:44:33.343Z,96918.13
2022-11-05T20:47:01.893Z,96904.03
2022-11-05T20:49:31.311Z,96912.59
2022-11-05T20:51:59.853Z,96914.41
2022-11-05T20:54:28.491Z,96910.78
2022-11-05T20:56:57.388Z,96914.63
2022-11-05T20:59:26.922Z,96908.47
2022-11-05T21:01:55.884Z,96905.09
2022-11-05T21:04:24.466Z,96920.81
2022-11-05T21:06:53.912Z,96916.88
2022-11-05T21:09:23.858Z,96912.72
2022-11-05T21:12:10.552Z,96921.91
2022-11-05T21:14:40.061Z,96914.28
2022-11-05T21:17:09.657Z,96923.31
2022-11-05T21:19:38.793Z,96923.06
2022-11-05T21:22:07.466Z,96923.03
2022-11-05T21:24:36.873Z,96916.28
2022-11-05T21:27:05.323Z,96932.25
2022-11-05T21:29:35.058Z,96933.47
2022-11-05T21:32:03.571Z,96931.25
2022-11-05T21:34:32.955Z,96928.56
2022-11-05T21:37:01.406Z,96920.03
2022-11-05T21:39:29.913Z,96919.03
2022-11-05T21:41:58.313Z,96922.84
2022-11-05T21:44:28.457Z,96913.69
2022-11-05T21:46:58.080Z,96920.22
2022-11-05T21:49:26.536Z,96922.25
2022-11-05T21:52:13.475Z,96923.38
2022-11-05T21:55:00.337Z,96918.63
2022-11-05T21:57:47.051Z,96920.91
2022-11-05T22:00:15.543Z,96924.25
2022-11-05T22:02:44.126Z,96926.06
2022-11-05T22:05:12.749Z,96930.59
2022-11-05T22:07:41.122Z,96932.16
2022-11-05T22:10:15.822Z,96928.78
2022-11-05T22:12:45.763Z,96932.66
2022-11-05T22:15:14.338Z,96935.84
2022-11-05T22:17:46.906Z,96937.03
2022-11-05T22:20:16.532Z,96931.84
2022-11-05T22:22:45.323Z,96933.00
2022-11-05T22:25:14.635Z,96921.84
2022-11-05T22:27:44.219Z,96926.31
2022-11-05T22:30:13.425Z,96926.34
2022-11-05T22:32:42.131Z,96926.09
2022-11-05T22:35:10.771Z,96928.81
2022-11-05T22:37:39.224Z,96923.72
2022-11-05T22:40:08.187Z,96929.38
2022-11-05T22:42:36.757Z,96920.56
2022-11-05T22:45:05.705Z,96916.00
2022-11-05T22:47:34.234Z,96930.94
2022-11-05T22:50:03.586Z,96931.13
2022-11-05T22:52:33.055Z,96922.63
2022-11-05T22:55:05.254Z,96928.44
2022-11-05T22:57:33.779Z,96942.50
2022-11-05T23:00:02.175Z,96932.06
2022-11-05T23:02:30.893Z,96926.31
2022-11-05T23:04:59.495Z,96934.34
2022-11-05T23:07:46.603Z,96931.25
2022-11-05T23:10:33.255Z,96931.44
2022-11-05T23:13:01.848Z,96937.50
2022-11-05T23:15:49.017Z,96919.38
2022-11-05T23:18:36.273Z,96931.69
2022-11-05T23:21:23.470Z,96926.94
2022-11-05T23:24:06.686Z,96905.44
2022-11-05T23:26:51.438Z,96925.25
2022-11-05T23:29:25.059Z,96930.16
2022-11-05T23:32:12.397Z,96934.28
2022-11-05T23:34:40.987Z,96934.06
2022-11-05T23:37:27.906Z,96925.63
2022-11-05T23:39:57.217Z,96948.91
2022-11-05T23:42:43.903Z,96939.78
2022-11-05T23:45:51.129Z,96945.97
2022-11-05T23:48:30.891Z,96923.38
2022-11-05T23:51:10.125Z,96942.81
2022-11-05T23:53:40.320Z,96943.31
2022-11-05T23:56:09.872Z,96949.84
2022-11-05T23:58:38.569Z,96947.28
